Terminal Aerodrome Forecast
Issued by NWS

Current Version | Previous Version | Text Only | Print | Product List | Glossary On
Versions: 1 2 3 4 5 6 7 8 9 10 11 12 13 14 15 16 17 18 19 20 21 22 23 24 25 26 27 28 29 30 31 32 33 34 35 36
000
FTAK31 PANC 191141
TAFAVD
TAF
PAVD 191141Z 1912/2012 VRB05KT 5SM -RA BR FEW002 SCT015 BKN025
      TEMPO 1912/1916 2SM RA BR BKN003 BKN010
     FM191600 VRB05KT P6SM -SHRA OVC025
      AMD LTD TO CLD VIS AND WIND=

USA.gov is the U.S. government's official web portal to all federal, state and local government web resources and services.